Terminal Aerodrome Forecast
Issued by NWS

Home | Current Version | Previous Version | Text Only | Print | Product List | Glossary On
Versions: 1 2 3 4 5 6 7 8 9 10 11 12 13 14
000
FTUS44 KCRP 290500
TAFLRD
TAF
KLRD 290524Z 2906/3006 11008KT P6SM SCT100
     FM291100 09005KT P6SM BKN016
      TEMPO 2912/2916 SCT017 BKN040
     FM291600 08009KT P6SM SCT035 BKN080 PROB30 2918/2924 5SM -TSRA
      BKN035CB
     FM300300 12012KT P6SM SCT050=

USA.gov is the U.S. government's official web portal to all federal, state and local government web resources and services.